Time;durP1;ratioP1;P1;durP2;ratioP2;P2;SDS_P1;SDS_P2;PMS_P1;PMS_P2;Temp;Humidity;BMP_temperature;BMP_pressure;BME280_temperature;BME280_humidity;BME280_pressure;Samples;Min_cycle;Max_cycle;Signal;HPM_P1;HPM_P2
2022/07/14 00:01:25;;;;;;;10.63;5.90;;;;;;;;;;5033503;28;20037;-65
2022/07/14 00:03:53;;;;;;;21.60;5.53;;;;;;;;;;5033903;28;20088;-65
2022/07/14 00:06:21;;;;;;;14.80;5.07;;;;;;;;;;5034055;28;20056;-65
2022/07/14 00:08:48;;;;;;;11.02;4.45;;;;;;;;;;5033575;28;20561;-64
2022/07/14 00:11:16;;;;;;;8.77;4.25;;;;;;;;;;5033650;28;20099;-64
2022/07/14 00:13:43;;;;;;;9.45;4.25;;;;;;;;;;5033753;28;20132;-64
2022/07/14 00:16:11;;;;;;;10.65;4.70;;;;;;;;;;5033996;28;20041;-66
2022/07/14 00:18:43;;;;;;;8.30;4.05;;;;;;;;;;5033698;28;20127;-65
2022/07/14 00:21:14;;;;;;;9.10;4.25;;;;;;;;;;5033562;28;20483;-64
2022/07/14 00:23:43;;;;;;;7.43;4.00;;;;;;;;;;5033666;28;20046;-65
2022/07/14 00:26:10;;;;;;;12.63;4.80;;;;;;;;;;5032302;28;20049;-65
2022/07/14 00:28:38;;;;;;;13.45;4.90;;;;;;;;;;5033827;28;20045;-64
2022/07/14 00:31:10;;;;;;;12.02;5.13;;;;;;;;;;5032241;28;20069;-64
2022/07/14 00:33:38;;;;;;;15.30;4.82;;;;;;;;;;5032229;28;20537;-64
2022/07/14 00:36:07;;;;;;;13.65;5.60;;;;;;;;;;5032566;28;20052;-64
2022/07/14 00:38:34;;;;;;;14.13;5.07;;;;;;;;;;5033519;28;20392;-64
2022/07/14 00:41:02;;;;;;;13.27;5.38;;;;;;;;;;5032044;28;20049;-65
2022/07/14 00:43:30;;;;;;;13.18;6.25;;;;;;;;;;5033237;28;20049;-65
2022/07/14 00:45:58;;;;;;;19.45;6.45;;;;;;;;;;4990123;28;1265520;-65
2022/07/14 00:48:27;;;;;;;14.73;6.40;;;;;;;;;;5033234;28;20480;-65
2022/07/14 00:50:55;;;;;;;16.30;6.88;;;;;;;;;;5034162;28;20420;-65
2022/07/14 00:53:22;;;;;;;17.50;7.05;;;;;;;;;;5032972;28;20388;-65
2022/07/14 00:55:50;;;;;;;17.45;7.57;;;;;;;;;;5032733;28;20034;-65
2022/07/14 00:58:18;;;;;;;20.20;7.70;;;;;;;;;;5032852;28;20550;-65
2022/07/14 01:00:46;;;;;;;20.95;7.68;;;;;;;;;;5032726;28;20045;-65
2022/07/14 01:03:13;;;;;;;14.52;5.88;;;;;;;;;;5034032;28;20048;-65
2022/07/14 01:05:42;;;;;;;14.85;5.63;;;;;;;;;;5034033;28;20046;-65
2022/07/14 01:08:09;;;;;;;12.55;5.70;;;;;;;;;;5033880;28;20107;-65
2022/07/14 01:10:37;;;;;;;18.25;6.65;;;;;;;;;;5033833;28;20052;-65
2022/07/14 01:13:05;;;;;;;14.50;5.95;;;;;;;;;;5033195;28;20402;-66
2022/07/14 01:15:33;;;;;;;13.98;5.85;;;;;;;;;;5032465;28;20768;-67
2022/07/14 01:18:03;;;;;;;16.63;5.45;;;;;;;;;;5033748;28;20057;-66
2022/07/14 01:20:31;;;;;;;13.05;5.28;;;;;;;;;;5032384;28;20048;-66
2022/07/14 01:22:58;;;;;;;11.23;5.30;;;;;;;;;;5015893;28;20072;-66
2022/07/14 01:25:26;;;;;;;12.60;5.55;;;;;;;;;;5032395;28;20041;-66
2022/07/14 01:27:54;;;;;;;8.02;4.13;;;;;;;;;;5032539;28;20064;-66
2022/07/14 01:30:22;;;;;;;6.95;3.10;;;;;;;;;;5032172;28;20049;-67
2022/07/14 01:32:50;;;;;;;6.97;2.92;;;;;;;;;;5033472;28;20391;-66
2022/07/14 01:35:17;;;;;;;8.45;3.38;;;;;;;;;;5032102;28;20038;-67
2022/07/14 01:37:48;;;;;;;5.47;2.50;;;;;;;;;;5032046;28;20526;-67
2022/07/14 01:40:15;;;;;;;5.80;2.85;;;;;;;;;;5031996;28;20495;-66
2022/07/14 01:42:43;;;;;;;5.47;2.75;;;;;;;;;;5033101;28;20057;-66
2022/07/14 01:45:12;;;;;;;7.57;3.00;;;;;;;;;;5031687;28;20566;-66
2022/07/14 01:47:40;;;;;;;7.18;3.00;;;;;;;;;;5031705;28;20049;-66
2022/07/14 01:50:08;;;;;;;5.97;2.85;;;;;;;;;;5033196;28;20043;-66
2022/07/14 01:52:39;;;;;;;4.88;2.97;;;;;;;;;;5016409;28;20410;-66
2022/07/14 01:55:07;;;;;;;7.93;3.40;;;;;;;;;;5031629;28;20045;-66
2022/07/14 01:57:36;;;;;;;5.82;3.28;;;;;;;;;;5031801;28;20191;-67
2022/07/14 02:00:04;;;;;;;6.28;3.28;;;;;;;;;;5031703;28;20125;-66
2022/07/14 02:02:33;;;;;;;8.63;3.80;;;;;;;;;;5033059;28;20103;-66
2022/07/14 02:05:01;;;;;;;9.93;3.25;;;;;;;;;;5031466;28;20076;-66
2022/07/14 02:07:28;;;;;;;9.32;3.20;;;;;;;;;;5031684;28;20041;-66
2022/07/14 02:13:01;;;;;;;9.98;3.78;;;;;;;;;;5031665;28;20423;-66
2022/07/14 02:15:28;;;;;;;6.78;3.53;;;;;;;;;;5031332;28;20533;-66
2022/07/14 02:17:56;;;;;;;5.90;3.60;;;;;;;;;;5031353;28;20041;-66
2022/07/14 02:20:25;;;;;;;8.40;3.67;;;;;;;;;;5031237;28;20084;-66
2022/07/14 02:22:52;;;;;;;10.02;3.50;;;;;;;;;;5032514;28;20041;-66
2022/07/14 02:25:20;;;;;;;8.90;3.47;;;;;;;;;;5031217;28;20037;-66
2022/07/14 02:27:48;;;;;;;10.93;3.80;;;;;;;;;;5031399;28;20056;-66
2022/07/14 02:30:15;;;;;;;8.75;3.40;;;;;;;;;;5031333;28;20037;-66
2022/07/14 02:32:43;;;;;;;9.02;3.85;;;;;;;;;;5032578;28;20072;-66
2022/07/14 02:35:10;;;;;;;10.90;3.30;;;;;;;;;;5015031;28;20128;-66
2022/07/14 02:37:38;;;;;;;7.13;3.30;;;;;;;;;;5032449;28;20407;-66
2022/07/14 02:40:05;;;;;;;8.30;3.55;;;;;;;;;;5031104;28;20041;-66
2022/07/14 02:42:33;;;;;;;8.00;3.47;;;;;;;;;;5031188;28;20080;-66
2022/07/14 02:45:03;;;;;;;7.35;3.58;;;;;;;;;;5030923;28;20042;-66
2022/07/14 02:47:31;;;;;;;7.32;3.63;;;;;;;;;;5030995;28;20046;-66
2022/07/14 02:49:59;;;;;;;12.40;5.07;;;;;;;;;;5031241;28;20057;-66
2022/07/14 02:52:26;;;;;;;19.23;4.60;;;;;;;;;;5031101;28;20041;-66
2022/07/14 02:54:55;;;;;;;15.30;3.60;;;;;;;;;;5014926;28;20467;-66
2022/07/14 02:57:26;;;;;;;6.63;3.67;;;;;;;;;;5030835;28;20042;-66
2022/07/14 02:59:56;;;;;;;6.50;3.85;;;;;;;;;;5031050;28;20065;-66
2022/07/14 03:02:24;;;;;;;10.85;4.50;;;;;;;;;;5030753;28;20072;-66
2022/07/14 03:04:52;;;;;;;11.90;4.60;;;;;;;;;;5030934;28;20136;-66
2022/07/14 03:07:20;;;;;;;13.70;4.70;;;;;;;;;;5030931;28;20059;-66
2022/07/14 03:09:48;;;;;;;11.02;4.28;;;;;;;;;;5030896;28;20128;-66
2022/07/14 03:12:16;;;;;;;6.82;3.70;;;;;;;;;;5031079;28;20045;-66
2022/07/14 03:14:43;;;;;;;10.25;4.47;;;;;;;;;;5030867;28;20084;-66
2022/07/14 03:17:13;;;;;;;8.57;3.90;;;;;;;;;;5032073;28;20510;-66
2022/07/14 03:19:41;;;;;;;7.03;4.10;;;;;;;;;;5030965;28;20049;-66
2022/07/14 03:22:08;;;;;;;6.70;3.78;;;;;;;;;;5030727;28;20055;-66
2022/07/14 03:24:37;;;;;;;12.65;4.35;;;;;;;;;;5030856;28;20071;-66
2022/07/14 03:27:05;;;;;;;9.73;3.42;;;;;;;;;;5030737;28;20045;-66
2022/07/14 03:29:33;;;;;;;8.65;3.45;;;;;;;;;;5030692;28;20046;-66
2022/07/14 03:32:00;;;;;;;14.23;4.70;;;;;;;;;;5030921;28;20053;-66
2022/07/14 03:34:31;;;;;;;11.20;5.00;;;;;;;;;;5030871;28;20042;-66
2022/07/14 03:37:00;;;;;;;7.68;3.55;;;;;;;;;;5032753;28;20588;-66
2022/07/14 03:39:37;;;;;;;9.60;4.50;;;;;;;;;;5034464;28;20046;-66
2022/07/14 03:42:04;;;;;;;8.88;3.97;;;;;;;;;;5034182;28;20053;-66
2022/07/14 03:44:32;;;;;;;9.98;3.70;;;;;;;;;;5034017;28;20136;-65
2022/07/14 03:47:00;;;;;;;10.57;4.18;;;;;;;;;;5035407;28;20042;-65
2022/07/14 03:49:27;;;;;;;9.20;6.22;;;;;;;;;;5034040;28;20037;-65
2022/07/14 03:51:58;;;;;;;9.68;6.57;;;;;;;;;;5034209;28;20049;-65
2022/07/14 03:54:27;;;;;;;10.88;5.63;;;;;;;;;;5033963;28;20048;-65
2022/07/14 03:56:55;;;;;;;13.52;4.57;;;;;;;;;;5033921;28;20068;-65
2022/07/14 03:59:23;;;;;;;10.25;3.95;;;;;;;;;;5033886;28;20052;-65
2022/07/14 04:01:51;;;;;;;9.90;5.10;;;;;;;;;;5033445;28;20541;-66
2022/07/14 04:04:19;;;;;;;7.13;3.33;;;;;;;;;;5033798;28;20056;-65
2022/07/14 04:06:48;;;;;;;10.30;4.47;;;;;;;;;;5033195;28;20115;-66
2022/07/14 04:09:16;;;;;;;8.48;4.00;;;;;;;;;;5033714;28;20065;-66
2022/07/14 04:11:49;;;;;;;12.70;5.07;;;;;;;;;;5033672;28;20049;-65
2022/07/14 04:14:20;;;;;;;6.72;3.15;;;;;;;;;;5033992;28;20037;-65
2022/07/14 04:16:47;;;;;;;14.93;5.32;;;;;;;;;;5033604;28;20080;-65
2022/07/14 04:19:17;;;;;;;8.85;5.35;;;;;;;;;;5034103;28;20056;-65
2022/07/14 04:21:45;;;;;;;18.88;4.07;;;;;;;;;;5033359;28;20136;-65
2022/07/14 04:24:13;;;;;;;8.32;3.30;;;;;;;;;;5033412;28;20091;-65
2022/07/14 04:26:42;;;;;;;12.48;4.68;;;;;;;;;;5032273;28;20042;-66
2022/07/14 04:29:10;;;;;;;10.85;4.43;;;;;;;;;;5033237;28;20038;-65
2022/07/14 04:31:38;;;;;;;9.90;4.60;;;;;;;;;;5033138;28;20407;-65
2022/07/14 04:34:08;;;;;;;7.38;4.30;;;;;;;;;;5033208;28;20148;-65
2022/07/14 04:36:36;;;;;;;11.45;6.32;;;;;;;;;;5032946;28;20049;-65
2022/07/14 04:39:07;;;;;;;14.75;6.70;;;;;;;;;;5033081;28;20038;-65
2022/07/14 04:41:39;;;;;;;14.75;6.40;;;;;;;;;;5033077;28;20054;-65
2022/07/14 04:44:07;;;;;;;9.82;5.63;;;;;;;;;;5033236;28;20041;-66
2022/07/14 04:46:35;;;;;;;11.88;5.75;;;;;;;;;;5033569;28;20128;-66
2022/07/14 04:52:03;;;;;;;8.88;5.05;;;;;;;;;;5050950;28;20051;-66
2022/07/14 04:54:51;;;;;;;10.38;4.50;;;;;;;;;;5053087;28;20060;-66
2022/07/14 04:57:39;;;;;;;15.77;4.20;;;;;;;;;;5053368;28;20103;-66
2022/07/14 05:00:11;;;;;;;14.05;4.50;;;;;;;;;;5052647;28;20048;-66
2022/07/14 05:02:39;;;;;;;14.38;4.80;;;;;;;;;;5052485;28;20041;-66
2022/07/14 05:05:07;;;;;;;12.20;4.82;;;;;;;;;;5052738;28;20041;-66
2022/07/14 05:07:35;;;;;;;9.10;3.95;;;;;;;;;;5052624;28;20041;-66
2022/07/14 05:10:06;;;;;;;9.82;4.38;;;;;;;;;;5052500;28;20450;-66
2022/07/14 05:12:35;;;;;;;11.80;4.60;;;;;;;;;;5052575;28;20114;-66
2022/07/14 05:15:03;;;;;;;12.63;4.25;;;;;;;;;;5052345;28;20052;-66
2022/07/14 05:17:31;;;;;;;6.70;3.55;;;;;;;;;;5052481;28;20041;-66
2022/07/14 05:20:03;;;;;;;10.07;3.80;;;;;;;;;;5052581;28;20040;-66
2022/07/14 05:22:41;;;;;;;9.93;3.83;;;;;;;;;;5052386;28;20520;-66
2022/07/14 05:25:12;;;;;;;12.82;4.03;;;;;;;;;;5052350;28;20052;-66
2022/07/14 05:27:41;;;;;;;7.65;4.13;;;;;;;;;;5052439;28;20140;-66
2022/07/14 05:30:28;;;;;;;6.97;3.70;;;;;;;;;;5053052;28;20521;-66
2022/07/14 05:32:59;;;;;;;11.48;3.97;;;;;;;;;;5052166;28;20616;-66
2022/07/14 05:35:29;;;;;;;12.90;4.47;;;;;;;;;;5051948;28;20572;-66
2022/07/14 05:37:58;;;;;;;6.18;3.95;;;;;;;;;;5051961;28;20053;-66
2022/07/14 05:40:27;;;;;;;6.75;3.72;;;;;;;;;;5051901;28;20437;-66
2022/07/14 05:42:54;;;;;;;9.27;3.72;;;;;;;;;;5051783;28;20052;-66
2022/07/14 05:45:22;;;;;;;8.02;3.83;;;;;;;;;;5051675;28;20075;-66
2022/07/14 05:47:49;;;;;;;10.15;3.35;;;;;;;;;;5051873;28;20082;-66
2022/07/14 05:50:19;;;;;;;9.48;3.40;;;;;;;;;;5051744;28;20517;-65
2022/07/14 05:52:48;;;;;;;7.57;3.55;;;;;;;;;;5051712;28;20037;-66
2022/07/14 05:55:17;;;;;;;7.82;3.22;;;;;;;;;;5051817;28;20132;-66
2022/07/14 05:57:44;;;;;;;8.52;2.92;;;;;;;;;;5051702;28;20421;-66
2022/07/14 06:00:12;;;;;;;6.53;3.83;;;;;;;;;;5051172;28;20045;-66
2022/07/14 06:02:48;;;;;;;9.98;3.83;;;;;;;;;;5051548;28;20045;-66
2022/07/14 06:05:22;;;;;;;7.60;4.53;;;;;;;;;;5051555;28;20056;-66
2022/07/14 06:07:50;;;;;;;9.68;3.70;;;;;;;;;;5051395;28;20373;-65
2022/07/14 06:10:18;;;;;;;6.72;3.50;;;;;;;;;;5051407;28;20458;-66
2022/07/14 06:12:48;;;;;;;9.77;3.63;;;;;;;;;;5051441;28;20041;-66
2022/07/14 06:15:16;;;;;;;7.95;3.78;;;;;;;;;;5051324;28;20124;-66
2022/07/14 06:17:45;;;;;;;13.18;4.10;;;;;;;;;;5034903;28;20033;-66
2022/07/14 06:20:12;;;;;;;10.43;4.30;;;;;;;;;;5051206;28;20398;-66
2022/07/14 06:22:43;;;;;;;10.57;3.85;;;;;;;;;;5051048;28;20490;-66
2022/07/14 06:25:11;;;;;;;9.38;4.18;;;;;;;;;;5051263;28;20052;-66
2022/07/14 06:27:39;;;;;;;8.15;3.65;;;;;;;;;;5051160;28;20039;-66
2022/07/14 06:30:07;;;;;;;7.45;3.33;;;;;;;;;;5051066;28;20048;-66
2022/07/14 06:32:41;;;;;;;5.78;3.30;;;;;;;;;;5051147;28;20055;-66
2022/07/14 06:35:13;;;;;;;6.93;3.15;;;;;;;;;;5051167;28;20051;-66
2022/07/14 06:37:41;;;;;;;7.68;3.53;;;;;;;;;;5051014;28;20051;-66
2022/07/14 06:40:10;;;;;;;7.57;3.42;;;;;;;;;;5050968;28;20045;-66
2022/07/14 06:42:43;;;;;;;7.57;3.53;;;;;;;;;;5050887;28;20140;-66
2022/07/14 06:45:26;;;;;;;8.80;3.70;;;;;;;;;;5051091;28;20168;-66
2022/07/14 06:47:55;;;;;;;11.38;4.05;;;;;;;;;;5050979;28;20364;-66
2022/07/14 06:50:23;;;;;;;7.72;3.17;;;;;;;;;;5052520;28;20057;-66
2022/07/14 06:52:53;;;;;;;7.28;3.80;;;;;;;;;;5051257;28;20478;-66
2022/07/14 06:55:21;;;;;;;6.18;3.42;;;;;;;;;;5051030;28;20076;-66
2022/07/14 06:57:50;;;;;;;8.18;4.45;;;;;;;;;;5052325;28;20049;-66
2022/07/14 07:00:23;;;;;;;7.22;4.20;;;;;;;;;;5052140;28;20044;-66
2022/07/14 07:02:51;;;;;;;7.10;4.10;;;;;;;;;;5052176;28;20102;-67
2022/07/14 07:08:05;;;;;;;10.00;3.55;;;;;;;;;;5052026;28;20032;-66
2022/07/14 07:10:32;;;;;;;8.57;3.92;;;;;;;;;;5052306;28;20296;-66
2022/07/14 07:13:00;;;;;;;13.57;6.35;;;;;;;;;;5056051;28;20045;-66
2022/07/14 07:15:27;;;;;;;10.73;5.20;;;;;;;;;;5056158;28;20372;-67
2022/07/14 07:17:55;;;;;;;17.10;7.90;;;;;;;;;;5056069;28;20072;-66
2022/07/14 07:20:23;;;;;;;9.20;4.32;;;;;;;;;;5055694;28;20037;-66
2022/07/14 07:22:50;;;;;;;5.55;2.90;;;;;;;;;;5055644;28;20063;-66
2022/07/14 07:25:18;;;;;;;10.98;2.80;;;;;;;;;;5055856;28;20068;-66
2022/07/14 07:27:45;;;;;;;10.35;7.60;;;;;;;;;;5055582;28;20041;-67
2022/07/14 07:30:13;;;;;;;9.00;6.40;;;;;;;;;;5055577;28;20048;-67
2022/07/14 07:32:40;;;;;;;9.32;5.13;;;;;;;;;;5055612;28;20091;-65
2022/07/14 07:35:08;;;;;;;9.93;4.65;;;;;;;;;;5055604;28;20128;-65
2022/07/14 07:37:35;;;;;;;5.25;3.50;;;;;;;;;;5055588;28;20079;-66
2022/07/14 07:40:03;;;;;;;6.47;4.65;;;;;;;;;;5055409;28;20045;-66
2022/07/14 07:42:31;;;;;;;3.85;2.70;;;;;;;;;;5055512;28;20042;-66
2022/07/14 07:45:00;;;;;;;8.52;4.75;;;;;;;;;;5055177;28;20123;-67
2022/07/14 07:47:28;;;;;;;5.68;2.50;;;;;;;;;;5055266;28;20037;-65
2022/07/14 07:49:55;;;;;;;7.18;3.95;;;;;;;;;;5055302;28;20040;-65
2022/07/14 07:52:23;;;;;;;18.02;3.40;;;;;;;;;;5055068;28;20048;-66
2022/07/14 07:54:51;;;;;;;7.80;4.90;;;;;;;;;;5055559;28;20036;-66
2022/07/14 07:57:38;;;;;;;7.78;3.97;;;;;;;;;;5053793;28;20135;-66
2022/07/14 08:00:06;;;;;;;10.13;3.88;;;;;;;;;;5055561;28;20037;-66
2022/07/14 08:02:50;;;;;;;7.88;3.33;;;;;;;;;;5055102;28;20043;-66
2022/07/14 08:05:18;;;;;;;6.35;2.55;;;;;;;;;;5055178;28;20095;-66
2022/07/14 08:08:07;;;;;;;6.38;3.38;;;;;;;;;;5055000;28;20045;-66
2022/07/14 08:10:35;;;;;;;8.02;3.50;;;;;;;;;;5054991;28;20045;-66
2022/07/14 08:13:03;;;;;;;6.80;3.50;;;;;;;;;;5054974;28;20045;-66
2022/07/14 08:15:31;;;;;;;6.47;2.80;;;;;;;;;;5053717;28;20041;-66
2022/07/14 08:17:59;;;;;;;8.80;2.92;;;;;;;;;;5054748;28;20411;-66
2022/07/14 08:20:27;;;;;;;6.55;2.92;;;;;;;;;;5054870;28;20051;-66
2022/07/14 08:22:55;;;;;;;8.02;2.78;;;;;;;;;;5054607;28;20369;-67
2022/07/14 08:25:22;;;;;;;6.78;4.32;;;;;;;;;;5054595;28;20487;-66
2022/07/14 08:27:50;;;;;;;6.82;4.10;;;;;;;;;;5054575;28;20037;-67
2022/07/14 08:30:18;;;;;;;4.55;2.28;;;;;;;;;;5054655;28;20083;-67
2022/07/14 08:32:46;;;;;;;5.05;2.15;;;;;;;;;;5054356;28;20051;-66
2022/07/14 08:35:15;;;;;;;6.32;4.00;;;;;;;;;;5054420;28;20044;-66
2022/07/14 08:37:43;;;;;;;3.92;1.65;;;;;;;;;;5054269;28;20037;-66
2022/07/14 08:40:12;;;;;;;7.25;2.88;;;;;;;;;;5053434;28;20445;-66
2022/07/14 08:42:42;;;;;;;5.70;1.48;;;;;;;;;;5054430;28;20041;-66
2022/07/14 08:45:12;;;;;;;3.67;2.60;;;;;;;;;;5053994;28;20126;-66
2022/07/14 08:47:40;;;;;;;4.05;2.30;;;;;;;;;;5054149;28;20068;-66
2022/07/14 08:50:10;;;;;;;4.88;2.38;;;;;;;;;;5054100;28;20051;-67
2022/07/14 08:52:38;;;;;;;2.17;1.65;;;;;;;;;;5054255;28;20033;-67
2022/07/14 08:55:10;;;;;;;6.60;3.55;;;;;;;;;;5054126;28;20045;-66
2022/07/14 08:57:39;;;;;;;8.07;3.78;;;;;;;;;;5053828;28;20391;-66
2022/07/14 09:00:09;;;;;;;7.18;6.47;;;;;;;;;;5054067;28;20048;-66
2022/07/14 09:02:38;;;;;;;5.82;2.90;;;;;;;;;;5054237;28;20051;-66
2022/07/14 09:05:26;;;;;;;8.40;4.55;;;;;;;;;;5054054;28;20116;-66
2022/07/14 09:07:56;;;;;;;5.60;3.00;;;;;;;;;;5052650;28;20040;-66
2022/07/14 09:10:27;;;;;;;5.13;2.45;;;;;;;;;;5053822;28;20059;-66
2022/07/14 09:13:14;;;;;;;3.30;1.90;;;;;;;;;;5053654;28;20406;-66
2022/07/14 09:15:44;;;;;;;3.08;2.50;;;;;;;;;;5053642;28;20171;-66
2022/07/14 09:18:21;;;;;;;4.45;1.85;;;;;;;;;;5053636;28;20051;-66
2022/07/14 09:20:49;;;;;;;4.20;2.90;;;;;;;;;;5053919;28;20045;-66
2022/07/14 09:23:25;;;;;;;3.47;1.63;;;;;;;;;;5053378;28;20078;-66
2022/07/14 09:26:09;;;;;;;10.05;3.97;;;;;;;;;;5053546;28;20094;-66
2022/07/14 09:28:39;;;;;;;4.07;2.67;;;;;;;;;;5053838;28;20116;-66
2022/07/14 09:31:21;;;;;;;3.88;3.03;;;;;;;;;;5053539;28;20286;-65
2022/07/14 09:33:57;;;;;;;4.05;2.80;;;;;;;;;;5052897;28;20041;-65
2022/07/14 09:36:34;;;;;;;4.32;2.53;;;;;;;;;;5053428;28;20051;-65
2022/07/14 09:39:06;;;;;;;7.18;4.82;;;;;;;;;;5053264;28;20067;-67
2022/07/14 09:41:36;;;;;;;4.25;3.08;;;;;;;;;;5053173;28;20049;-65
2022/07/14 09:44:07;;;;;;;4.63;2.20;;;;;;;;;;5053102;28;20053;-65
2022/07/14 09:46:53;;;;;;;3.58;1.48;;;;;;;;;;5051892;28;20103;-65
2022/07/14 09:49:23;;;;;;;7.45;3.70;;;;;;;;;;5051931;28;20051;-65
2022/07/14 09:51:53;;;;;;;6.95;4.65;;;;;;;;;;5052599;28;20088;-65
2022/07/14 09:54:40;;;;;;;7.55;4.28;;;;;;;;;;5051777;28;20053;-65
2022/07/14 09:57:08;;;;;;;4.97;1.80;;;;;;;;;;5052992;28;20048;-65
2022/07/14 09:59:56;;;;;;;3.40;2.30;;;;;;;;;;5052889;28;20045;-65
2022/07/14 10:02:26;;;;;;;4.00;2.03;;;;;;;;;;5052864;28;20401;-65
2022/07/14 10:04:55;;;;;;;3.47;2.40;;;;;;;;;;5052841;28;20044;-65
2022/07/14 10:07:24;;;;;;;2.80;1.45;;;;;;;;;;5052823;28;20486;-65
2022/07/14 10:10:11;;;;;;;4.07;2.10;;;;;;;;;;5034871;28;20056;-65
2022/07/14 10:12:41;;;;;;;2.85;1.67;;;;;;;;;;5052819;28;20044;-65
2022/07/14 10:15:10;;;;;;;7.20;3.45;;;;;;;;;;5052655;28;20125;-65
2022/07/14 10:17:39;;;;;;;6.07;3.33;;;;;;;;;;5053064;28;20064;-65
2022/07/14 10:20:08;;;;;;;3.55;1.60;;;;;;;;;;5052658;28;20139;-65
2022/07/14 10:22:37;;;;;;;2.72;2.10;;;;;;;;;;5052747;28;20402;-65
2022/07/14 10:25:05;;;;;;;4.07;1.67;;;;;;;;;;5052514;28;20106;-65
2022/07/14 10:27:42;;;;;;;3.17;1.73;;;;;;;;;;5052537;28;20033;-65
2022/07/14 10:30:10;;;;;;;2.38;1.30;;;;;;;;;;5052532;28;20077;-65
2022/07/14 10:32:56;;;;;;;4.88;2.30;;;;;;;;;;5052448;28;20082;-65
2022/07/14 10:35:24;;;;;;;5.35;1.50;;;;;;;;;;5051463;28;20049;-65
2022/07/14 10:38:05;;;;;;;3.40;1.85;;;;;;;;;;5052280;28;20044;-65
2022/07/14 10:40:59;;;;;;;3.80;1.50;;;;;;;;;;5052264;28;20040;-65
2022/07/14 10:43:39;;;;;;;3.63;1.90;;;;;;;;;;5051301;28;20079;-65
2022/07/14 10:46:08;;;;;;;3.95;2.78;;;;;;;;;;5054548;28;20049;-65
2022/07/14 10:48:37;;;;;;;2.45;2.05;;;;;;;;;;5056524;28;20044;-65
2022/07/14 10:51:26;;;;;;;3.80;2.38;;;;;;;;;;5056663;28;20045;-65
2022/07/14 10:54:00;;;;;;;3.28;1.55;;;;;;;;;;5056509;28;20048;-65
2022/07/14 10:56:47;;;;;;;6.53;2.75;;;;;;;;;;5056263;28;20033;-65
2022/07/14 10:59:28;;;;;;;4.55;2.08;;;;;;;;;;5056187;28;20119;-65
2022/07/14 11:02:14;;;;;;;4.78;1.83;;;;;;;;;;5056453;28;20037;-65
2022/07/14 11:07:46;;;;;;;4.80;3.50;;;;;;;;;;5056261;28;20090;-65
2022/07/14 11:10:17;;;;;;;4.97;2.13;;;;;;;;;;5056098;28;20080;-65
2022/07/14 11:13:00;;;;;;;5.05;1.77;;;;;;;;;;5055967;28;20407;-65
2022/07/14 11:15:40;;;;;;;1.75;1.25;;;;;;;;;;5054696;28;20103;-65
2022/07/14 11:18:21;;;;;;;14.52;9.70;;;;;;;;;;5054629;28;20068;-65
2022/07/14 11:20:50;;;;;;;16.10;13.55;;;;;;;;;;5055979;28;20047;-65
2022/07/14 11:23:22;;;;;;;6.03;2.90;;;;;;;;;;5054665;28;20048;-65
2022/07/14 11:25:51;;;;;;;5.85;3.90;;;;;;;;;;5055735;28;20045;-64
2022/07/14 11:28:37;;;;;;;6.65;2.55;;;;;;;;;;5054539;28;20041;-65
2022/07/14 11:31:14;;;;;;;2.95;2.10;;;;;;;;;;5055731;28;20051;-65
2022/07/14 11:36:30;;;;;;;5.40;4.65;;;;;;;;;;5055719;28;20112;-65
2022/07/14 11:39:17;;;;;;;6.10;2.80;;;;;;;;;;5055670;28;20407;-65
2022/07/14 11:41:45;;;;;;;11.70;9.30;;;;;;;;;;5055553;28;20041;-65
2022/07/14 11:44:32;;;;;;;4.25;2.40;;;;;;;;;;5055307;28;20402;-66
2022/07/14 11:47:00;;;;;;;3.53;1.80;;;;;;;;;;5055395;28;20037;-65
2022/07/14 11:49:28;;;;;;;5.30;3.75;;;;;;;;;;5055277;28;20045;-65
2022/07/14 11:51:56;;;;;;;4.20;2.75;;;;;;;;;;5055392;28;20041;-66
2022/07/14 11:54:25;;;;;;;2.17;1.40;;;;;;;;;;5055200;28;20124;-65
2022/07/14 11:57:03;;;;;;;7.15;5.85;;;;;;;;;;5054615;28;20495;-65
2022/07/14 11:59:31;;;;;;;4.20;1.88;;;;;;;;;;5055199;28;20045;-65
2022/07/14 12:02:19;;;;;;;2.47;1.90;;;;;;;;;;5055303;28;20049;-65
2022/07/14 12:04:56;;;;;;;3.22;1.80;;;;;;;;;;5055151;28;20045;-65
2022/07/14 12:07:42;;;;;;;9.73;7.97;;;;;;;;;;5055036;28;20477;-65
2022/07/14 12:10:10;;;;;;;4.85;2.47;;;;;;;;;;5055038;28;20052;-65
2022/07/14 12:12:50;;;;;;;5.13;2.20;;;;;;;;;;5054892;28;20494;-65
2022/07/14 12:15:24;;;;;;;5.97;2.05;;;;;;;;;;5054956;28;20056;-65
2022/07/14 12:17:53;;;;;;;5.60;1.65;;;;;;;;;;5054855;28;20112;-64
2022/07/14 12:20:22;;;;;;;3.72;1.92;;;;;;;;;;5054868;28;20076;-64
2022/07/14 12:22:53;;;;;;;4.47;1.90;;;;;;;;;;5054677;28;20064;-64
2022/07/14 12:25:28;;;;;;;3.33;2.20;;;;;;;;;;5054559;28;20049;-64
2022/07/14 12:27:56;;;;;;;6.97;5.57;;;;;;;;;;5054500;28;20037;-64
2022/07/14 12:30:24;;;;;;;6.22;4.20;;;;;;;;;;5054611;28;20041;-65
2022/07/14 12:32:52;;;;;;;8.75;6.35;;;;;;;;;;5054759;28;20069;-64
2022/07/14 12:35:21;;;;;;;4.57;1.80;;;;;;;;;;5054530;28;20402;-65
2022/07/14 12:37:49;;;;;;;4.10;2.63;;;;;;;;;;5054578;28;20052;-64
2022/07/14 12:40:37;;;;;;;3.35;1.77;;;;;;;;;;5054506;28;20399;-65
2022/07/14 12:43:08;;;;;;;4.22;2.35;;;;;;;;;;5053074;28;20441;-66
2022/07/14 12:45:58;;;;;;;4.80;1.50;;;;;;;;;;5054360;28;20053;-65
2022/07/14 12:48:27;;;;;;;8.15;4.55;;;;;;;;;;5054109;28;20091;-65
2022/07/14 12:50:54;;;;;;;5.60;2.40;;;;;;;;;;5054115;28;20517;-65
2022/07/14 12:53:22;;;;;;;6.28;2.20;;;;;;;;;;5054137;28;20087;-65
2022/07/14 12:55:59;;;;;;;2.45;2.05;;;;;;;;;;5054011;28;20041;-65
2022/07/14 12:58:28;;;;;;;6.30;2.20;;;;;;;;;;5054154;28;20091;-64
2022/07/14 13:00:55;;;;;;;5.93;4.07;;;;;;;;;;5053894;28;20391;-64
2022/07/14 13:03:23;;;;;;;4.55;2.45;;;;;;;;;;5053917;28;20094;-64
2022/07/14 13:05:52;;;;;;;4.25;1.90;;;;;;;;;;5053971;28;20380;-64
2022/07/14 13:08:38;;;;;;;4.07;1.95;;;;;;;;;;5053344;28;20120;-64
2022/07/14 13:11:12;;;;;;;3.35;1.60;;;;;;;;;;5053765;28;20049;-64
2022/07/14 13:13:41;;;;;;;5.97;2.00;;;;;;;;;;5053751;28;20108;-64
2022/07/14 13:16:19;;;;;;;5.40;2.55;;;;;;;;;;5052461;28;20161;-64
2022/07/14 13:19:02;;;;;;;4.38;2.13;;;;;;;;;;5053608;28;20077;-64
2022/07/14 13:21:49;;;;;;;3.15;2.10;;;;;;;;;;5052510;28;20079;-64
2022/07/14 13:24:21;;;;;;;3.28;2.00;;;;;;;;;;5043926;28;20045;-65
2022/07/14 13:27:14;;;;;;;3.65;1.80;;;;;;;;;;5032727;28;20069;-64
2022/07/14 13:29:50;;;;;;;97.78;61.40;;;;;;;;;;5031533;28;20053;-64
2022/07/14 13:32:27;;;;;;;63.55;43.97;;;;;;;;;;5032760;28;20036;-64
2022/07/14 13:34:54;;;;;;;278.23;208.60;;;;;;;;;;5032250;28;20037;-65
2022/07/14 13:37:22;;;;;;;3.42;2.05;;;;;;;;;;5032306;28;20116;-65
2022/07/14 13:39:50;;;;;;;6.53;3.17;;;;;;;;;;5033028;28;20037;-65
2022/07/14 13:42:17;;;;;;;29.45;17.52;;;;;;;;;;5032736;28;20045;-65
2022/07/14 13:44:45;;;;;;;19.98;9.05;;;;;;;;;;5031787;28;20049;-65
2022/07/14 13:47:14;;;;;;;13.13;7.18;;;;;;;;;;5032884;28;20045;-65
2022/07/14 13:52:27;;;;;;;5.22;2.28;;;;;;;;;;5032807;28;20034;-65
2022/07/14 13:54:55;;;;;;;6.72;2.50;;;;;;;;;;5032399;28;20041;-65
2022/07/14 13:57:22;;;;;;;26.52;3.17;;;;;;;;;;5032571;28;20124;-66
2022/07/14 13:59:50;;;;;;;4.43;1.70;;;;;;;;;;5032464;28;20041;-65
2022/07/14 14:02:17;;;;;;;4.72;1.77;;;;;;;;;;5031564;28;20033;-65
2022/07/14 14:04:45;;;;;;;3.85;1.90;;;;;;;;;;5031847;28;20049;-65
2022/07/14 14:07:16;;;;;;;5.28;2.00;;;;;;;;;;5025964;28;20050;-65
2022/07/14 14:09:43;;;;;;;4.15;2.00;;;;;;;;;;5032324;28;20026;-67
2022/07/14 14:12:11;;;;;;;3.15;2.30;;;;;;;;;;5032197;28;20053;-67
2022/07/14 14:14:38;;;;;;;9.43;3.10;;;;;;;;;;5031305;28;20041;-67
2022/07/14 14:17:06;;;;;;;3.70;2.17;;;;;;;;;;5032136;28;20045;-64
2022/07/14 14:19:33;;;;;;;4.82;3.10;;;;;;;;;;5032106;28;20072;-63
2022/07/14 14:22:02;;;;;;;11.15;6.45;;;;;;;;;;5031604;28;20044;-64
2022/07/14 14:24:29;;;;;;;5.60;2.28;;;;;;;;;;5031972;28;20120;-65
2022/07/14 14:26:57;;;;;;;5.75;2.03;;;;;;;;;;5031968;28;20052;-66
2022/07/14 14:29:25;;;;;;;4.00;1.85;;;;;;;;;;5030614;28;20033;-65
2022/07/14 14:31:58;;;;;;;3.17;1.52;;;;;;;;;;5031851;28;20487;-65
2022/07/14 14:34:27;;;;;;;3.33;1.80;;;;;;;;;;5032311;28;20043;-66
2022/07/14 14:36:55;;;;;;;3.25;1.60;;;;;;;;;;5032314;28;20048;-66
2022/07/14 14:39:23;;;;;;;5.13;2.03;;;;;;;;;;5032141;28;20059;-65
2022/07/14 14:41:50;;;;;;;3.75;2.00;;;;;;;;;;5032185;28;20088;-65
2022/07/14 14:44:18;;;;;;;3.70;2.08;;;;;;;;;;5031962;28;20445;-66
2022/07/14 14:46:46;;;;;;;2.42;1.52;;;;;;;;;;5030210;28;20046;-66
2022/07/14 14:49:14;;;;;;;3.83;2.08;;;;;;;;;;5045882;28;20045;-65
2022/07/14 14:51:41;;;;;;;5.97;3.03;;;;;;;;;;5031288;28;20407;-65
2022/07/14 14:54:09;;;;;;;8.32;4.80;;;;;;;;;;5030863;28;20049;-66
2022/07/14 14:56:36;;;;;;;2.38;1.98;;;;;;;;;;5031144;28;20459;-65
2022/07/14 14:59:04;;;;;;;5.75;3.33;;;;;;;;;;5041560;28;20037;-66
2022/07/14 15:01:32;;;;;;;4.35;1.17;;;;;;;;;;5041809;28;20033;-66
2022/07/14 15:04:00;;;;;;;3.60;1.50;;;;;;;;;;5031190;28;20042;-66
2022/07/14 15:06:27;;;;;;;3.08;1.38;;;;;;;;;;5030598;28;20041;-66
2022/07/14 15:08:55;;;;;;;4.05;2.85;;;;;;;;;;5030811;28;20042;-65
2022/07/14 15:11:22;;;;;;;2.17;1.30;;;;;;;;;;5030724;28;20129;-66
2022/07/14 15:13:50;;;;;;;5.35;2.13;;;;;;;;;;5030393;28;20034;-66
2022/07/14 15:16:17;;;;;;;3.45;2.00;;;;;;;;;;5031459;28;20454;-65